Time;durP1;ratioP1;P1;durP2;ratioP2;P2;SDS_P1;SDS_P2;PMS_P1;PMS_P2;Temp;Humidity;BMP_temperature;BMP_pressure;BME280_temperature;BME280_humidity;BME280_pressure;Samples;Min_cycle;Max_cycle;Signal;HPM_P1;HPM_P2
2021/03/08 00:01:11;;;;;;;21.97;13.73;;;;;;;;;;5073917;28;20625;-72
2021/03/08 00:04:15;;;;;;;20.20;12.73;;;;;;;;;;5063792;28;20612;-72
2021/03/08 00:07:19;;;;;;;26.73;14.20;;;;;;;;;;5073295;28;20664;-72
2021/03/08 00:10:24;;;;;;;23.30;13.20;;;;;;;;;;5071140;28;20652;-72
2021/03/08 00:13:28;;;;;;;20.00;13.43;;;;;;;;;;5069449;28;21167;-71
2021/03/08 00:16:32;;;;;;;19.80;13.20;;;;;;;;;;5062327;28;20639;-72
2021/03/08 00:19:37;;;;;;;19.27;13.20;;;;;;;;;;5073526;28;20557;-72
2021/03/08 00:22:42;;;;;;;22.23;14.40;;;;;;;;;;5072179;28;21161;-72
2021/03/08 00:25:46;;;;;;;25.13;14.07;;;;;;;;;;5061254;28;20558;-72
2021/03/08 00:28:50;;;;;;;18.73;12.40;;;;;;;;;;5073707;28;20553;-72
2021/03/08 00:31:54;;;;;;;21.00;13.23;;;;;;;;;;5073302;28;20964;-72
2021/03/08 00:35:00;;;;;;;21.97;13.77;;;;;;;;;;5053350;28;20964;-72
2021/03/08 00:38:04;;;;;;;22.63;13.03;;;;;;;;;;5061021;28;20963;-72
2021/03/08 00:41:08;;;;;;;20.30;12.73;;;;;;;;;;5060763;28;20652;-72
2021/03/08 00:44:13;;;;;;;21.17;12.27;;;;;;;;;;5073028;28;20597;-72
2021/03/08 00:47:17;;;;;;;17.00;11.60;;;;;;;;;;5063887;28;20632;-72
2021/03/08 00:50:24;;;;;;;21.63;12.83;;;;;;;;;;5073082;28;20632;-72
2021/03/08 00:53:29;;;;;;;22.50;14.23;;;;;;;;;;5053576;28;20547;-72
2021/03/08 00:56:33;;;;;;;20.63;13.70;;;;;;;;;;5063186;28;20613;-72
2021/03/08 00:59:37;;;;;;;20.50;12.77;;;;;;;;;;5066471;28;20608;-72
2021/03/08 01:02:41;;;;;;;19.90;12.80;;;;;;;;;;5062507;28;20596;-72
2021/03/08 01:05:51;;;;;;;21.67;13.30;;;;;;;;;;5061037;28;20895;-72
2021/03/08 01:09:09;;;;;;;23.30;13.23;;;;;;;;;;5045086;28;20578;-73
2021/03/08 01:12:13;;;;;;;20.37;12.83;;;;;;;;;;5072592;28;20597;-73
2021/03/08 01:15:21;;;;;;;21.10;12.30;;;;;;;;;;5060757;28;20565;-73
2021/03/08 01:18:26;;;;;;;18.63;11.73;;;;;;;;;;5060277;28;21170;-73
2021/03/08 01:21:30;;;;;;;19.30;12.03;;;;;;;;;;5072594;28;20652;-73
2021/03/08 01:24:35;;;;;;;24.90;13.90;;;;;;;;;;5072491;28;20613;-73
2021/03/08 01:27:39;;;;;;;19.30;11.80;;;;;;;;;;5072162;28;20590;-73
2021/03/08 01:30:44;;;;;;;22.40;12.80;;;;;;;;;;5051745;28;20653;-73
2021/03/08 01:33:51;;;;;;;18.73;12.57;;;;;;;;;;5093000;28;20561;-73
2021/03/08 01:36:55;;;;;;;20.80;12.17;;;;;;;;;;5081039;28;20540;-73
2021/03/08 01:40:00;;;;;;;22.13;13.00;;;;;;;;;;5063087;28;20668;-73
2021/03/08 01:43:06;;;;;;;20.87;13.03;;;;;;;;;;5072349;28;20585;-73
2021/03/08 01:46:10;;;;;;;21.40;13.27;;;;;;;;;;5060529;28;20549;-72
2021/03/08 01:49:14;;;;;;;18.53;12.23;;;;;;;;;;5060341;28;20522;-73
2021/03/08 01:52:19;;;;;;;20.10;12.40;;;;;;;;;;5072487;28;21190;-72
2021/03/08 01:55:24;;;;;;;22.33;13.53;;;;;;;;;;5071996;28;20554;-72
2021/03/08 01:58:28;;;;;;;24.63;14.53;;;;;;;;;;5072190;28;20564;-72
2021/03/08 02:01:33;;;;;;;20.20;12.47;;;;;;;;;;5072355;28;20656;-72
2021/03/08 02:04:37;;;;;;;21.60;13.57;;;;;;;;;;5072535;28;20568;-72
2021/03/08 02:07:42;;;;;;;24.23;14.10;;;;;;;;;;5071373;28;20657;-72
2021/03/08 02:10:48;;;;;;;24.57;13.87;;;;;;;;;;5071571;28;21209;-72
2021/03/08 02:14:18;;;;;;;23.33;13.83;;;;;;;;;;5050062;28;20597;-72
2021/03/08 02:17:29;;;;;;;21.63;13.03;;;;;;;;;;5073843;28;20607;-72
2021/03/08 02:21:11;;;;;;;22.17;14.00;;;;;;;;;;5056113;28;20629;-72
2021/03/08 02:24:53;;;;;;;21.37;12.93;;;;;;;;;;5059098;28;20596;-72
2021/03/08 02:28:18;;;;;;;23.00;13.30;;;;;;;;;;5075688;28;20608;-72
2021/03/08 02:31:25;;;;;;;27.43;14.17;;;;;;;;;;5074897;28;20640;-72
2021/03/08 02:34:35;;;;;;;23.53;14.20;;;;;;;;;;5056116;28;20601;-72
2021/03/08 02:37:59;;;;;;;22.23;13.53;;;;;;;;;;5063251;28;20592;-72
2021/03/08 02:41:08;;;;;;;20.57;12.83;;;;;;;;;;5073123;28;20656;-72
2021/03/08 02:44:15;;;;;;;21.23;12.60;;;;;;;;;;5075230;28;20546;-72
2021/03/08 02:47:20;;;;;;;18.00;12.50;;;;;;;;;;5074912;28;20628;-72
2021/03/08 02:50:27;;;;;;;21.27;13.27;;;;;;;;;;5075154;28;20636;-72
2021/03/08 02:53:35;;;;;;;19.30;12.77;;;;;;;;;;5043127;28;20605;-72
2021/03/08 02:56:42;;;;;;;20.77;13.13;;;;;;;;;;5074328;28;21162;-72
2021/03/08 02:59:49;;;;;;;22.03;12.43;;;;;;;;;;5063375;28;20605;-72
2021/03/08 03:02:54;;;;;;;19.67;12.73;;;;;;;;;;5074628;28;20549;-72
2021/03/08 03:06:01;;;;;;;19.37;12.30;;;;;;;;;;5074539;28;20542;-73
2021/03/08 03:09:11;;;;;;;21.47;12.50;;;;;;;;;;5074640;28;20617;-72
2021/03/08 03:12:16;;;;;;;22.02;12.50;;;;;;;;;;5075035;28;20546;-72
2021/03/08 03:15:21;;;;;;;22.50;13.13;;;;;;;;;;5042927;28;20646;-72
2021/03/08 03:18:28;;;;;;;24.20;13.67;;;;;;;;;;5031166;28;20551;-72
2021/03/08 03:21:35;;;;;;;23.87;13.57;;;;;;;;;;5060583;28;20656;-72
2021/03/08 03:24:41;;;;;;;21.73;13.90;;;;;;;;;;5074402;28;20596;-72
2021/03/08 03:27:47;;;;;;;19.52;12.88;;;;;;;;;;5074407;28;20297;-73
2021/03/08 03:30:52;;;;;;;24.63;13.97;;;;;;;;;;5074571;28;20235;-73
2021/03/08 03:33:57;;;;;;;21.17;12.17;;;;;;;;;;5074547;28;20609;-73
2021/03/08 03:37:02;;;;;;;22.40;13.63;;;;;;;;;;5073779;28;20549;-72
2021/03/08 03:40:07;;;;;;;23.47;13.87;;;;;;;;;;5074302;28;20656;-73
2021/03/08 03:43:11;;;;;;;22.47;14.23;;;;;;;;;;5075409;28;20565;-73
2021/03/08 03:46:16;;;;;;;22.23;14.00;;;;;;;;;;5066029;28;20624;-73
2021/03/08 03:49:20;;;;;;;23.23;13.80;;;;;;;;;;5073556;28;20604;-73
2021/03/08 03:52:24;;;;;;;21.83;13.43;;;;;;;;;;5062499;28;20549;-72
2021/03/08 03:55:28;;;;;;;24.20;14.00;;;;;;;;;;5042118;28;20558;-73
2021/03/08 03:58:44;;;;;;;22.87;13.97;;;;;;;;;;5068016;28;20202;-73
2021/03/08 04:02:11;;;;;;;26.13;13.48;;;;;;;;;;5054133;28;20637;-73
2021/03/08 04:05:20;;;;;;;24.35;14.52;;;;;;;;;;5054425;28;20179;-73
2021/03/08 04:08:27;;;;;;;31.10;14.70;;;;;;;;;;5069585;28;20214;-73
2021/03/08 04:11:32;;;;;;;22.65;12.88;;;;;;;;;;5053866;28;20633;-72
2021/03/08 04:14:40;;;;;;;24.07;12.10;;;;;;;;;;5058479;28;20194;-73
2021/03/08 04:17:44;;;;;;;22.70;13.80;;;;;;;;;;5074290;22;20701;-72
2021/03/08 04:20:52;;;;;;;22.35;12.05;;;;;;;;;;5059204;28;20668;-73
2021/03/08 04:23:57;;;;;;;21.70;14.23;;;;;;;;;;5073895;28;20194;-73
2021/03/08 04:27:06;;;;;;;21.90;13.50;;;;;;;;;;5073213;28;20549;-73
2021/03/08 04:30:11;;;;;;;23.20;14.30;;;;;;;;;;5041029;28;20654;-73
2021/03/08 04:33:17;;;;;;;24.17;13.63;;;;;;;;;;5033671;28;20551;-73
2021/03/08 04:36:21;;;;;;;20.40;12.93;;;;;;;;;;5043713;28;21197;-72
2021/03/08 04:39:29;;;;;;;19.83;12.90;;;;;;;;;;5064057;28;20586;-72
2021/03/08 04:42:34;;;;;;;23.40;13.03;;;;;;;;;;5044446;28;20601;-72
2021/03/08 04:45:40;;;;;;;19.50;12.97;;;;;;;;;;5052465;28;20563;-73
2021/03/08 04:48:45;;;;;;;21.90;13.40;;;;;;;;;;5053296;28;20609;-73
2021/03/08 04:51:49;;;;;;;23.73;13.47;;;;;;;;;;5033388;28;20231;-73
2021/03/08 04:54:54;;;;;;;24.63;13.30;;;;;;;;;;5033504;28;20606;-73
2021/03/08 04:57:59;;;;;;;22.33;12.73;;;;;;;;;;5068573;28;20191;-72
2021/03/08 05:01:05;;;;;;;26.77;13.35;;;;;;;;;;5032751;28;20634;-73
2021/03/08 05:04:09;;;;;;;20.23;13.20;;;;;;;;;;5042368;28;20194;-73
2021/03/08 05:07:19;;;;;;;22.90;11.93;;;;;;;;;;5073318;28;21168;-73
2021/03/08 05:10:26;;;;;;;20.13;12.37;;;;;;;;;;5066884;28;20609;-72
2021/03/08 05:13:31;;;;;;;23.03;12.83;;;;;;;;;;5055438;28;20953;-72
2021/03/08 05:16:40;;;;;;;18.90;11.70;;;;;;;;;;5066959;28;20629;-73
2021/03/08 05:19:46;;;;;;;20.67;12.75;;;;;;;;;;5053229;28;20965;-73
2021/03/08 05:22:51;;;;;;;24.65;13.27;;;;;;;;;;5052308;28;20203;-73
2021/03/08 05:26:00;;;;;;;21.85;13.20;;;;;;;;;;5042276;28;20191;-73
2021/03/08 05:29:06;;;;;;;20.30;12.40;;;;;;;;;;5049401;28;20226;-72
2021/03/08 05:32:15;;;;;;;21.08;12.65;;;;;;;;;;5052208;28;20550;-73
2021/03/08 05:35:23;;;;;;;22.33;13.18;;;;;;;;;;5066326;28;20207;-72
2021/03/08 05:38:30;;;;;;;19.88;13.20;;;;;;;;;;5071884;28;20186;-72
2021/03/08 05:41:53;;;;;;;20.70;12.75;;;;;;;;;;5049057;28;20238;-72
2021/03/08 05:45:01;;;;;;;23.33;13.32;;;;;;;;;;5033095;28;20204;-72
2021/03/08 05:48:41;;;;;;;22.25;13.25;;;;;;;;;;5049044;28;20216;-72
2021/03/08 05:52:30;;;;;;;20.83;12.18;;;;;;;;;;5031452;28;20717;-72
2021/03/08 05:56:16;;;;;;;20.95;12.30;;;;;;;;;;5055557;28;20211;-72
2021/03/08 05:59:23;;;;;;;18.75;12.63;;;;;;;;;;5035659;28;20199;-72
2021/03/08 06:02:49;;;;;;;22.10;13.02;;;;;;;;;;5043848;28;20680;-72
2021/03/08 06:06:05;;;;;;;17.73;11.63;;;;;;;;;;5056263;28;20188;-72
2021/03/08 06:09:26;;;;;;;19.03;11.30;;;;;;;;;;5060485;28;20214;-71
2021/03/08 06:12:38;;;;;;;25.17;12.83;;;;;;;;;;5036457;28;20546;-72
2021/03/08 06:15:49;;;;;;;23.80;12.23;;;;;;;;;;5071089;28;21176;-72
2021/03/08 06:18:55;;;;;;;19.55;12.50;;;;;;;;;;5066496;28;20597;-72
2021/03/08 06:22:00;;;;;;;21.90;13.03;;;;;;;;;;5075451;28;20195;-72
2021/03/08 06:25:06;;;;;;;22.33;13.47;;;;;;;;;;5075851;28;20604;-72
2021/03/08 06:28:11;;;;;;;23.70;14.17;;;;;;;;;;5062659;28;20637;-72
2021/03/08 06:31:15;;;;;;;19.70;12.20;;;;;;;;;;5056044;28;21246;-72
2021/03/08 06:34:18;;;;;;;23.60;13.03;;;;;;;;;;5054865;28;20566;-72
2021/03/08 06:37:25;;;;;;;28.77;18.00;;;;;;;;;;5055069;28;21131;-72
2021/03/08 06:40:30;;;;;;;31.77;15.87;;;;;;;;;;5074130;28;20659;-72
2021/03/08 06:43:35;;;;;;;33.43;14.60;;;;;;;;;;5065856;28;21167;-72
2021/03/08 06:46:40;;;;;;;23.90;13.60;;;;;;;;;;5055663;28;20547;-73
2021/03/08 06:49:45;;;;;;;24.13;13.73;;;;;;;;;;5073894;28;20667;-73
2021/03/08 06:52:49;;;;;;;19.67;12.90;;;;;;;;;;5075689;28;20594;-73
2021/03/08 06:56:10;;;;;;;26.27;12.50;;;;;;;;;;5065737;28;20602;-73
2021/03/08 06:59:14;;;;;;;21.77;13.27;;;;;;;;;;5055448;28;20550;-73
2021/03/08 07:02:20;;;;;;;21.27;13.33;;;;;;;;;;5038399;28;20555;-73
2021/03/08 07:05:26;;;;;;;17.37;12.57;;;;;;;;;;5061697;28;20620;-73
2021/03/08 07:08:30;;;;;;;22.03;12.37;;;;;;;;;;5034325;28;20611;-73
2021/03/08 07:11:35;;;;;;;22.40;12.87;;;;;;;;;;5061895;28;20665;-73
2021/03/08 07:14:40;;;;;;;20.07;13.27;;;;;;;;;;5055514;28;20594;-70
2021/03/08 07:17:45;;;;;;;23.53;13.93;;;;;;;;;;5058606;28;20637;-70
2021/03/08 07:21:12;;;;;;;35.13;13.17;;;;;;;;;;5043374;28;21236;-72
2021/03/08 07:24:16;;;;;;;20.63;12.27;;;;;;;;;;5054697;28;20978;-72
2021/03/08 07:27:38;;;;;;;22.77;13.20;;;;;;;;;;5043558;28;20579;-72
2021/03/08 07:30:43;;;;;;;18.57;11.70;;;;;;;;;;5054111;28;20613;-72
2021/03/08 07:33:58;;;;;;;24.90;12.60;;;;;;;;;;5057861;28;20972;-72
2021/03/08 07:37:02;;;;;;;23.67;12.20;;;;;;;;;;5061590;28;20595;-72
2021/03/08 07:40:07;;;;;;;24.37;11.87;;;;;;;;;;5056918;28;21241;-72
2021/03/08 07:43:24;;;;;;;23.57;12.37;;;;;;;;;;5074165;28;20589;-72
2021/03/08 07:46:34;;;;;;;17.93;11.83;;;;;;;;;;5073501;28;20598;-72
2021/03/08 07:49:39;;;;;;;19.83;11.60;;;;;;;;;;5059138;28;20637;-72
2021/03/08 07:52:43;;;;;;;19.10;12.07;;;;;;;;;;5058374;28;20598;-72
2021/03/08 07:55:48;;;;;;;18.37;12.60;;;;;;;;;;5053406;28;20759;-72
2021/03/08 07:58:53;;;;;;;19.47;12.67;;;;;;;;;;5054214;28;20594;-72
2021/03/08 08:01:57;;;;;;;18.73;11.93;;;;;;;;;;5049479;28;20589;-72
2021/03/08 08:05:03;;;;;;;21.00;11.13;;;;;;;;;;5059101;28;20600;-72
2021/03/08 08:08:08;;;;;;;15.03;10.17;;;;;;;;;;5042254;28;20612;-72
2021/03/08 08:11:13;;;;;;;15.63;10.07;;;;;;;;;;5022531;28;20620;-71
2021/03/08 08:14:19;;;;;;;17.07;10.20;;;;;;;;;;5032781;28;21069;-72
2021/03/08 08:17:25;;;;;;;20.37;10.13;;;;;;;;;;5033800;28;20618;-72
2021/03/08 08:20:37;;;;;;;14.93;10.10;;;;;;;;;;5063334;28;20786;-72
2021/03/08 08:24:01;;;;;;;13.63;10.23;;;;;;;;;;5060844;28;20607;-72
2021/03/08 08:27:05;;;;;;;17.37;9.60;;;;;;;;;;5035258;28;20549;-72
2021/03/08 08:30:10;;;;;;;13.00;9.63;;;;;;;;;;5053381;28;20662;-72
2021/03/08 08:33:27;;;;;;;13.47;9.27;;;;;;;;;;5032840;28;20611;-72
2021/03/08 08:36:31;;;;;;;14.13;9.67;;;;;;;;;;5033096;28;20540;-72
2021/03/08 08:39:35;;;;;;;13.60;9.20;;;;;;;;;;5044461;28;20571;-72
2021/03/08 08:42:39;;;;;;;19.93;9.70;;;;;;;;;;5053646;28;20543;-72
2021/03/08 08:45:46;;;;;;;13.53;9.10;;;;;;;;;;5053061;28;20543;-72
2021/03/08 08:49:13;;;;;;;10.50;8.17;;;;;;;;;;5053406;28;21089;-72
2021/03/08 08:52:37;;;;;;;11.47;8.50;;;;;;;;;;5052596;28;20907;-72
2021/03/08 08:55:41;;;;;;;13.07;8.20;;;;;;;;;;5053205;28;20552;-72
2021/03/08 08:58:48;;;;;;;11.10;8.20;;;;;;;;;;5052586;28;20278;-72
2021/03/08 09:02:30;;;;;;;10.07;7.50;;;;;;;;;;5053394;28;20216;-73
2021/03/08 09:05:34;;;;;;;7.87;6.17;;;;;;;;;;5002860;28;20178;-73
2021/03/08 09:08:51;;;;;;;13.60;7.23;;;;;;;;;;5052317;28;20191;-73
2021/03/08 09:11:58;;;;;;;9.37;6.70;;;;;;;;;;5053007;28;20184;-73
2021/03/08 09:15:05;;;;;;;9.93;6.50;;;;;;;;;;5052755;28;20200;-73
2021/03/08 09:18:12;;;;;;;9.50;6.00;;;;;;;;;;5044414;28;20694;-73
2021/03/08 09:21:17;;;;;;;8.43;5.63;;;;;;;;;;5053172;28;20212;-73
2021/03/08 09:24:30;;;;;;;7.73;5.70;;;;;;;;;;5053184;28;20196;-73
2021/03/08 09:27:46;;;;;;;8.83;6.50;;;;;;;;;;5056196;28;20179;-72
2021/03/08 09:30:50;;;;;;;6.77;5.37;;;;;;;;;;5056015;28;20231;-71
2021/03/08 09:33:55;;;;;;;8.57;6.03;;;;;;;;;;5057036;28;20176;-72
2021/03/08 09:37:01;;;;;;;9.17;5.63;;;;;;;;;;5057147;28;20172;-73
2021/03/08 09:40:06;;;;;;;14.27;5.37;;;;;;;;;;5055886;28;20208;-72
2021/03/08 09:43:17;;;;;;;8.80;5.60;;;;;;;;;;5056712;28;20203;-71
2021/03/08 09:46:22;;;;;;;6.67;5.20;;;;;;;;;;5057186;28;20508;-73
2021/03/08 09:49:45;;;;;;;6.27;4.87;;;;;;;;;;5056921;28;20204;-73
2021/03/08 09:52:54;;;;;;;9.17;5.17;;;;;;;;;;5056188;28;20181;-71
2021/03/08 09:56:04;;;;;;;6.60;4.93;;;;;;;;;;5055951;28;20184;-71
2021/03/08 09:59:08;;;;;;;6.80;4.37;;;;;;;;;;5056690;28;20184;-71
2021/03/08 10:02:16;;;;;;;5.70;4.33;;;;;;;;;;5056525;28;20520;-72
2021/03/08 10:05:21;;;;;;;9.00;4.87;;;;;;;;;;5056865;28;20177;-72
2021/03/08 10:08:30;;;;;;;6.43;4.60;;;;;;;;;;5056218;28;20172;-72
2021/03/08 10:11:33;;;;;;;8.73;4.43;;;;;;;;;;5056144;28;20212;-72
2021/03/08 10:14:38;;;;;;;6.70;4.57;;;;;;;;;;5056646;28;20188;-72
2021/03/08 10:18:12;;;;;;;5.57;4.40;;;;;;;;;;5055956;28;20685;-73
2021/03/08 10:21:16;;;;;;;6.23;5.00;;;;;;;;;;5056177;28;20207;-73
2021/03/08 10:24:38;;;;;;;6.13;4.40;;;;;;;;;;5055999;28;20176;-72
2021/03/08 10:27:42;;;;;;;6.03;4.50;;;;;;;;;;5056088;28;20181;-72
2021/03/08 10:30:48;;;;;;;8.70;4.10;;;;;;;;;;5054795;28;20228;-72
2021/03/08 10:33:59;;;;;;;9.10;4.73;;;;;;;;;;5055696;28;20200;-72
2021/03/08 10:37:03;;;;;;;18.77;4.70;;;;;;;;;;5054386;28;20180;-72
2021/03/08 10:40:08;;;;;;;6.63;4.40;;;;;;;;;;5045028;28;20734;-72
2021/03/08 10:43:13;;;;;;;26.57;5.93;;;;;;;;;;5055499;28;20208;-72
2021/03/08 10:46:17;;;;;;;10.13;4.60;;;;;;;;;;5035621;28;20201;-73
2021/03/08 10:49:22;;;;;;;10.37;5.27;;;;;;;;;;5035884;28;20205;-73
2021/03/08 10:52:26;;;;;;;6.20;4.47;;;;;;;;;;5035823;28;20532;-71
2021/03/08 10:55:30;;;;;;;14.97;5.07;;;;;;;;;;5044978;28;20209;-71
2021/03/08 10:58:35;;;;;;;8.40;5.80;;;;;;;;;;5056971;28;20200;-71
2021/03/08 11:01:58;;;;;;;5.77;4.83;;;;;;;;;;5055146;28;20208;-71
2021/03/08 11:05:13;;;;;;;6.17;5.00;;;;;;;;;;5053505;28;20183;-71
2021/03/08 11:08:17;;;;;;;7.70;5.10;;;;;;;;;;5060648;28;20199;-70
2021/03/08 11:11:27;;;;;;;7.20;5.37;;;;;;;;;;5036412;28;20228;-70
2021/03/08 11:14:47;;;;;;;9.37;5.60;;;;;;;;;;5028789;28;20204;-70
2021/03/08 11:17:52;;;;;;;13.23;5.73;;;;;;;;;;5054937;28;20200;-70
2021/03/08 11:20:56;;;;;;;18.70;6.00;;;;;;;;;;5056117;28;20212;-70
2021/03/08 11:24:18;;;;;;;10.77;5.40;;;;;;;;;;5043357;28;20219;-70
2021/03/08 11:27:27;;;;;;;8.57;5.80;;;;;;;;;;5043955;28;20199;-70
2021/03/08 11:30:34;;;;;;;8.07;5.63;;;;;;;;;;5053971;28;20224;-70
2021/03/08 11:33:38;;;;;;;6.90;5.27;;;;;;;;;;5054734;28;20184;-70
2021/03/08 11:36:43;;;;;;;9.37;5.20;;;;;;;;;;5057331;28;20196;-70
2021/03/08 11:39:58;;;;;;;7.63;5.70;;;;;;;;;;5071626;28;20199;-70
2021/03/08 11:43:03;;;;;;;7.47;5.50;;;;;;;;;;5048945;28;20200;-70
2021/03/08 11:46:07;;;;;;;9.57;6.33;;;;;;;;;;5054987;28;20172;-70
2021/03/08 11:49:11;;;;;;;12.03;7.83;;;;;;;;;;5087046;22;20231;-87
2021/03/08 13:11:34;;;;;;;4.80;3.57;;;;;;;;;;5059442;28;20204;-89
2021/03/08 13:14:39;;;;;;;6.23;4.20;;;;;;;;;;5018371;28;20555;-87
2021/03/08 13:17:43;;;;;;;3.77;2.97;;;;;;;;;;5029929;28;20200;-87
2021/03/08 13:20:48;;;;;;;45.23;6.47;;;;;;;;;;5018470;28;20195;-87
2021/03/08 13:23:52;;;;;;;40.37;4.77;;;;;;;;;;5030165;28;20670;-88
2021/03/08 13:26:56;;;;;;;7.90;3.40;;;;;;;;;;5022011;28;20537;-87
2021/03/08 13:30:02;;;;;;;5.63;3.80;;;;;;;;;;4999211;28;20220;-88
2021/03/08 13:33:06;;;;;;;11.27;4.30;;;;;;;;;;4999441;28;20177;-87
2021/03/08 13:36:10;;;;;;;4.87;3.70;;;;;;;;;;5022122;28;20196;-87
2021/03/08 13:39:14;;;;;;;5.40;3.37;;;;;;;;;;5009732;28;20216;-87
2021/03/08 13:42:19;;;;;;;4.27;3.27;;;;;;;;;;5009946;28;20177;-87
2021/03/08 13:45:23;;;;;;;3.90;3.37;;;;;;;;;;5010439;28;20181;-87
2021/03/08 13:48:28;;;;;;;4.87;3.20;;;;;;;;;;5021733;28;20220;-88
2021/03/08 13:51:32;;;;;;;3.80;3.00;;;;;;;;;;5010063;28;20220;-88
2021/03/08 13:54:36;;;;;;;6.80;3.03;;;;;;;;;;5010164;28;20201;-88
2021/03/08 13:57:40;;;;;;;5.37;2.87;;;;;;;;;;4999023;28;20181;-88
2021/03/08 14:00:45;;;;;;;3.73;2.50;;;;;;;;;;4998625;28;20165;-88
2021/03/08 14:03:50;;;;;;;2.80;2.37;;;;;;;;;;5000466;28;20177;-88
2021/03/08 14:06:54;;;;;;;6.33;2.53;;;;;;;;;;5022301;28;20177;-88
2021/03/08 14:09:58;;;;;;;5.17;3.13;;;;;;;;;;4999723;28;20220;-88
2021/03/08 14:13:02;;;;;;;3.60;2.47;;;;;;;;;;5025152;28;20546;-88
2021/03/08 14:16:08;;;;;;;4.93;3.00;;;;;;;;;;5023056;28;20176;-88
2021/03/08 14:19:12;;;;;;;11.07;3.40;;;;;;;;;;5044389;28;20721;-88
2021/03/08 14:22:19;;;;;;;11.43;3.00;;;;;;;;;;5032677;28;20187;-88
2021/03/08 14:25:23;;;;;;;9.40;3.17;;;;;;;;;;5021635;28;20626;-87
2021/03/08 14:28:27;;;;;;;4.57;2.80;;;;;;;;;;5015931;28;20577;-87
2021/03/08 14:31:32;;;;;;;4.53;2.80;;;;;;;;;;5012863;28;20291;-87
2021/03/08 14:34:36;;;;;;;6.07;2.80;;;;;;;;;;5012615;28;20189;-87
2021/03/08 14:37:41;;;;;;;5.43;3.10;;;;;;;;;;5001752;28;20184;-87
2021/03/08 14:40:45;;;;;;;5.73;2.77;;;;;;;;;;5035718;28;20615;-87
2021/03/08 14:43:49;;;;;;;3.70;2.73;;;;;;;;;;5024270;28;20180;-87
2021/03/08 14:46:53;;;;;;;4.97;3.07;;;;;;;;;;5024063;28;20176;-87
2021/03/08 14:49:58;;;;;;;3.67;2.83;;;;;;;;;;5012807;28;20216;-87
2021/03/08 14:53:02;;;;;;;3.50;2.77;;;;;;;;;;5012805;28;20169;-87
2021/03/08 14:56:06;;;;;;;6.77;2.77;;;;;;;;;;5026257;28;20189;-87
2021/03/08 14:59:10;;;;;;;3.63;2.70;;;;;;;;;;5023656;28;20679;-87
2021/03/08 15:02:15;;;;;;;5.67;3.57;;;;;;;;;;5012498;28;20169;-87
2021/03/08 15:05:19;;;;;;;4.20;3.33;;;;;;;;;;5025633;28;20177;-87
2021/03/08 15:08:23;;;;;;;4.37;3.60;;;;;;;;;;5004195;28;20208;-87
2021/03/08 15:41:36;;;;;;;7.10;2.23;;;;;;;;;;5013534;28;20200;-93
2021/03/08 15:44:40;;;;;;;27.37;3.50;;;;;;;;;;5024481;28;20189;-92
2021/03/08 15:47:45;;;;;;;10.73;2.37;;;;;;;;;;5024790;28;20177;-93
2021/03/08 15:50:49;;;;;;;2.43;2.23;;;;;;;;;;5002556;28;20181;-93
2021/03/08 15:53:53;;;;;;;3.17;2.30;;;;;;;;;;5010615;28;20176;-92
2021/03/08 15:56:57;;;;;;;2.70;1.90;;;;;;;;;;5008876;28;20181;-92
2021/03/08 16:00:06;;;;;;;16.30;2.93;;;;;;;;;;5027516;28;20212;-92
2021/03/08 16:03:12;;;;;;;2.20;2.00;;;;;;;;;;5013827;28;20193;-92
2021/03/08 16:06:16;;;;;;;2.97;2.40;;;;;;;;;;5012149;28;20181;-92
2021/03/08 16:09:20;;;;;;;5.60;2.83;;;;;;;;;;5001880;28;20549;-92
2021/03/08 16:12:25;;;;;;;8.07;2.47;;;;;;;;;;5002128;28;20213;-92
2021/03/08 16:15:30;;;;;;;9.20;2.53;;;;;;;;;;5014377;28;20529;-91
2021/03/08 16:18:34;;;;;;;2.00;1.50;;;;;;;;;;4999766;28;20217;-91
2021/03/08 16:21:38;;;;;;;3.73;1.80;;;;;;;;;;4999656;28;20177;-92
2021/03/08 16:24:42;;;;;;;2.33;1.30;;;;;;;;;;5011776;28;20184;-91
2021/03/08 16:27:46;;;;;;;1.60;1.30;;;;;;;;;;5001186;28;20267;-91
2021/03/08 16:31:00;;;;;;;26.13;3.10;;;;;;;;;;5023331;28;20196;-89
2021/03/08 16:34:04;;;;;;;11.23;1.73;;;;;;;;;;5022656;28;20176;-91
2021/03/08 16:37:10;;;;;;;1.70;1.47;;;;;;;;;;5031230;28;20180;-90
2021/03/08 16:40:14;;;;;;;8.23;1.67;;;;;;;;;;5020242;28;20184;-86
2021/03/08 16:43:23;;;;;;;2.53;1.83;;;;;;;;;;5031845;28;20164;-88
2021/03/08 16:47:24;;;;;;;17.83;2.20;;;;;;;;;;5041545;28;20188;-87
2021/03/08 16:50:30;;;;;;;2.07;1.70;;;;;;;;;;5029710;28;20176;-88
2021/03/08 16:53:34;;;;;;;3.17;1.90;;;;;;;;;;5020376;28;20650;-88
2021/03/08 16:56:38;;;;;;;15.87;2.67;;;;;;;;;;5021643;28;20594;-90
2021/03/08 16:59:45;;;;;;;6.57;2.10;;;;;;;;;;5031249;28;20622;-88
2021/03/08 17:02:49;;;;;;;12.83;2.60;;;;;;;;;;5042400;28;20587;-90
2021/03/08 17:05:54;;;;;;;12.57;3.20;;;;;;;;;;5043195;28;20559;-91
2021/03/08 17:08:58;;;;;;;7.10;2.40;;;;;;;;;;5019662;28;20622;-91
2021/03/08 17:12:02;;;;;;;5.07;2.60;;;;;;;;;;5018517;28;20607;-92
2021/03/08 17:15:07;;;;;;;5.73;2.20;;;;;;;;;;5030324;28;21077;-91
2021/03/08 17:18:13;;;;;;;9.73;3.10;;;;;;;;;;5030159;28;20634;-92
2021/03/08 17:21:17;;;;;;;3.87;2.67;;;;;;;;;;5020211;28;20563;-89
2021/03/08 17:24:22;;;;;;;4.97;3.10;;;;;;;;;;5020826;28;20539;-89
2021/03/08 17:27:26;;;;;;;5.53;4.63;;;;;;;;;;5023461;28;20539;-90
2021/03/08 17:30:34;;;;;;;17.00;3.43;;;;;;;;;;5012862;28;21066;-88
2021/03/08 17:33:38;;;;;;;6.20;3.37;;;;;;;;;;4999675;28;20596;-90
2021/03/08 17:36:42;;;;;;;4.37;3.07;;;;;;;;;;5000700;28;20607;-89
2021/03/08 17:39:48;;;;;;;4.67;3.60;;;;;;;;;;5011453;28;20622;-89
2021/03/08 17:42:52;;;;;;;9.03;4.30;;;;;;;;;;4999602;28;20544;-89
2021/03/08 17:45:57;;;;;;;24.47;12.43;;;;;;;;;;5010283;28;20540;-89
2021/03/08 17:49:00;;;;;;;17.90;9.77;;;;;;;;;;5025091;28;20663;-89
2021/03/08 17:52:05;;;;;;;15.07;8.67;;;;;;;;;;5014063;28;20654;-90
2021/03/08 17:55:12;;;;;;;27.07;13.13;;;;;;;;;;5003503;28;20603;-89
2021/03/08 17:58:17;;;;;;;41.27;16.90;;;;;;;;;;5003119;28;20630;-90
2021/03/08 18:01:21;;;;;;;59.40;15.83;;;;;;;;;;5014049;28;20906;-89
2021/03/08 18:04:25;;;;;;;16.67;8.37;;;;;;;;;;5014659;28;20902;-88
2021/03/08 18:07:29;;;;;;;63.53;23.77;;;;;;;;;;5024961;28;20544;-89
2021/03/08 18:10:34;;;;;;;39.57;16.53;;;;;;;;;;5013415;28;20548;-89
2021/03/08 18:13:38;;;;;;;29.17;14.13;;;;;;;;;;5002182;28;20614;-89
2021/03/08 18:16:42;;;;;;;65.00;24.90;;;;;;;;;;5013986;28;20551;-89
2021/03/08 18:19:46;;;;;;;33.80;14.77;;;;;;;;;;5002123;28;20639;-90
2021/03/08 18:22:50;;;;;;;24.30;11.63;;;;;;;;;;5013163;28;20546;-90
2021/03/08 18:25:54;;;;;;;43.63;20.23;;;;;;;;;;5002341;28;20557;-90
2021/03/08 18:29:00;;;;;;;22.23;11.77;;;;;;;;;;5002443;28;21220;-89
2021/03/08 18:32:05;;;;;;;18.00;10.20;;;;;;;;;;5019661;28;20630;-90
2021/03/08 18:35:13;;;;;;;22.30;11.77;;;;;;;;;;5013095;28;20549;-89
2021/03/08 18:38:17;;;;;;;13.97;9.00;;;;;;;;;;5001817;28;20642;-89
2021/03/08 18:41:21;;;;;;;10.60;7.00;;;;;;;;;;5004419;28;20951;-89
2021/03/08 18:44:26;;;;;;;10.20;6.97;;;;;;;;;;5005929;28;20595;-89
2021/03/08 18:47:30;;;;;;;9.97;6.77;;;;;;;;;;5013270;28;20555;-90
2021/03/08 18:50:36;;;;;;;21.33;12.33;;;;;;;;;;5036676;28;20544;-89
2021/03/08 18:53:41;;;;;;;13.40;8.30;;;;;;;;;;5013737;28;20630;-89
2021/03/08 18:56:45;;;;;;;12.90;8.37;;;;;;;;;;5013653;28;20540;-90
2021/03/08 18:59:52;;;;;;;11.03;7.57;;;;;;;;;;5012742;28;20623;-91
2021/03/08 19:02:56;;;;;;;9.50;6.73;;;;;;;;;;5002335;28;20552;-90
2021/03/08 19:06:00;;;;;;;9.50;7.07;;;;;;;;;;5002278;28;20544;-90
2021/03/08 19:09:05;;;;;;;8.10;6.50;;;;;;;;;;5053837;28;20654;-90
2021/03/08 19:12:09;;;;;;;10.30;6.77;;;;;;;;;;5031797;28;20614;-90
2021/03/08 19:15:14;;;;;;;9.67;6.80;;;;;;;;;;5020999;28;20547;-89
2021/03/08 19:18:18;;;;;;;9.17;6.60;;;;;;;;;;5032419;28;21195;-91
2021/03/08 19:21:23;;;;;;;13.87;7.00;;;;;;;;;;5024729;28;20586;-89
2021/03/08 19:24:27;;;;;;;10.10;6.67;;;;;;;;;;5021599;28;20603;-88
2021/03/08 19:27:32;;;;;;;10.67;6.97;;;;;;;;;;5021294;28;20547;-89
2021/03/08 19:30:36;;;;;;;9.53;6.60;;;;;;;;;;5020361;28;20555;-89
2021/03/08 19:33:41;;;;;;;9.70;6.70;;;;;;;;;;5025783;28;20643;-89
2021/03/08 19:36:45;;;;;;;9.37;6.73;;;;;;;;;;5001073;28;21070;-90
2021/03/08 19:39:49;;;;;;;10.87;6.87;;;;;;;;;;5022826;28;20631;-89
2021/03/08 19:42:53;;;;;;;9.63;5.97;;;;;;;;;;5000468;28;20556;-89
2021/03/08 19:45:57;;;;;;;9.57;7.00;;;;;;;;;;5000617;28;20907;-89
2021/03/08 19:49:01;;;;;;;9.67;7.17;;;;;;;;;;5000378;28;20626;-89
2021/03/08 19:52:06;;;;;;;10.47;6.50;;;;;;;;;;5011591;28;20544;-89
2021/03/08 19:55:11;;;;;;;11.67;7.47;;;;;;;;;;5034091;28;20884;-89
2021/03/08 19:58:15;;;;;;;9.37;6.83;;;;;;;;;;5022983;28;20631;-89
2021/03/08 20:01:20;;;;;;;8.83;6.40;;;;;;;;;;5022306;28;20555;-90
2021/03/08 20:04:24;;;;;;;11.10;7.80;;;;;;;;;;5011100;28;20599;-89
2021/03/08 20:07:28;;;;;;;10.77;7.73;;;;;;;;;;5031652;28;20614;-89
2021/03/08 20:10:34;;;;;;;11.07;6.77;;;;;;;;;;5030004;28;21164;-88
2021/03/08 20:28:33;;;;;;;11.10;6.97;;;;;;;;;;4923894;29;20631;-89